Time;durP1;ratioP1;P1;durP2;ratioP2;P2;SDS_P1;SDS_P2;PMS_P1;PMS_P2;Temp;Humidity;BMP_temperature;BMP_pressure;BME280_temperature;BME280_humidity;BME280_pressure;Samples;Min_cycle;Max_cycle;Signal;HPM_P1;HPM_P2
2023/01/03 00:01:31;;;;;;;3.70;3.10;;;9.30;99.90;;;;;;5130004;27;20207;-67
2023/01/03 00:04:01;;;;;;;3.87;3.27;;;9.20;99.90;;;;;;5125517;27;20241;-68
2023/01/03 00:06:32;;;;;;;4.47;3.10;;;9.30;99.90;;;;;;5129391;27;20194;-70
2023/01/03 00:09:03;;;;;;;3.87;2.80;;;9.30;99.90;;;;;;5131817;27;20193;-68
2023/01/03 00:14:23;;;;;;;2.97;2.50;;;9.30;99.90;;;;;;5132754;27;20199;-69
2023/01/03 00:16:55;;;;;;;12.23;9.20;;;9.30;99.90;;;;;;5132236;27;20195;-69
2023/01/03 00:19:25;;;;;;;4.83;3.03;;;9.30;99.90;;;;;;5132375;27;20200;-69
2023/01/03 00:21:55;;;;;;;5.33;2.63;;;9.20;99.90;;;;;;5132395;27;20195;-68
2023/01/03 00:24:24;;;;;;;5.67;3.20;;;9.10;99.90;;;;;;5132945;27;20203;-68
2023/01/03 00:26:52;;;;;;;3.70;3.10;;;9.10;99.90;;;;;;5131656;27;20225;-68
2023/01/03 00:29:23;;;;;;;5.23;2.77;;;9.10;99.90;;;;;;5113352;28;20674;-68
2023/01/03 00:31:52;;;;;;;3.30;2.63;;;9.10;99.90;;;;;;5132074;27;20225;-68
2023/01/03 00:34:21;;;;;;;2.73;2.53;;;9.10;99.90;;;;;;5132235;27;20202;-72
2023/01/03 00:36:50;;;;;;;3.07;2.77;;;9.10;99.90;;;;;;5132413;27;20244;-71
2023/01/03 00:39:19;;;;;;;2.90;2.60;;;9.10;99.90;;;;;;5132149;27;20195;-70
2023/01/03 00:41:48;;;;;;;2.60;2.33;;;9.10;99.90;;;;;;5132956;27;20198;-70
2023/01/03 00:44:17;;;;;;;2.83;2.37;;;9.10;99.90;;;;;;5122174;27;20252;-70
2023/01/03 00:46:47;;;;;;;5.07;2.70;;;9.10;99.90;;;;;;5126679;27;20613;-70
2023/01/03 00:49:16;;;;;;;5.13;2.70;;;9.00;99.90;;;;;;5135065;27;20200;-71
2023/01/03 00:51:45;;;;;;;2.77;2.50;;;9.00;99.90;;;;;;5132212;27;20200;-70
2023/01/03 00:54:15;;;;;;;3.17;2.70;;;9.00;99.90;;;;;;5131423;27;20214;-70
2023/01/03 00:56:46;;;;;;;5.70;2.67;;;8.90;99.90;;;;;;5131863;28;20249;-70
2023/01/03 00:59:17;;;;;;;3.73;2.77;;;8.90;99.90;;;;;;5125380;28;20196;-72
2023/01/03 01:01:48;;;;;;;5.80;2.73;;;8.90;99.90;;;;;;5130603;28;20229;-69
2023/01/03 01:04:20;;;;;;;6.03;2.70;;;8.90;99.90;;;;;;5132185;28;20275;-70
2023/01/03 01:06:50;;;;;;;3.00;2.50;;;8.90;99.90;;;;;;5132096;28;20222;-69
2023/01/03 01:09:23;;;;;;;3.37;2.73;;;8.90;99.90;;;;;;5131970;28;20195;-70
2023/01/03 01:11:52;;;;;;;5.27;2.97;;;8.90;99.90;;;;;;5131907;28;20199;-69
2023/01/03 01:14:24;;;;;;;4.50;2.90;;;8.90;99.90;;;;;;5131434;28;20207;-70
2023/01/03 01:16:57;;;;;;;4.97;2.70;;;8.90;99.90;;;;;;5132023;28;20654;-69
2023/01/03 01:19:28;;;;;;;3.20;2.47;;;8.80;99.90;;;;;;5131819;28;20285;-70
2023/01/03 01:21:57;;;;;;;8.10;3.23;;;8.80;99.90;;;;;;5132024;28;20608;-71
2023/01/03 01:24:26;;;;;;;3.23;2.47;;;8.90;99.90;;;;;;5027839;28;20751;-69
2023/01/03 01:26:55;;;;;;;7.33;2.90;;;8.90;99.90;;;;;;5027957;28;20241;-70
2023/01/03 01:29:25;;;;;;;4.13;2.83;;;8.90;99.90;;;;;;5027658;28;20576;-69
2023/01/03 01:31:55;;;;;;;5.03;2.90;;;8.90;99.90;;;;;;5028345;28;20216;-70
2023/01/03 01:34:24;;;;;;;7.43;3.13;;;8.90;99.90;;;;;;5028118;28;20204;-70
2023/01/03 01:36:53;;;;;;;5.53;3.10;;;9.00;99.90;;;;;;5028622;28;20239;-70
2023/01/03 01:39:24;;;;;;;8.03;3.03;;;9.00;99.90;;;;;;5028787;28;20259;-70
2023/01/03 01:44:51;;;;;;;4.47;3.10;;;9.00;99.90;;;;;;5072386;28;20211;-70
2023/01/03 01:47:34;;;;;;;6.77;2.93;;;9.00;99.90;;;;;;5072512;28;20300;-71
2023/01/03 01:50:15;;;;;;;3.30;2.60;;;8.90;99.90;;;;;;5072440;28;21013;-70
2023/01/03 01:52:48;;;;;;;5.73;2.60;;;9.00;99.90;;;;;;5072406;28;20206;-70
2023/01/03 01:55:22;;;;;;;5.60;2.60;;;9.00;99.90;;;;;;5071749;28;20296;-70
2023/01/03 01:57:52;;;;;;;3.70;2.70;;;9.00;99.90;;;;;;5072251;28;20224;-70
2023/01/03 02:00:21;;;;;;;8.30;2.97;;;8.90;99.90;;;;;;5072274;28;20205;-69
2023/01/03 02:02:54;;;;;;;3.93;2.60;;;8.90;99.90;;;;;;5055030;28;20206;-70
2023/01/03 02:05:23;;;;;;;6.90;2.80;;;8.80;99.90;;;;;;5072021;28;20203;-70
2023/01/03 02:07:53;;;;;;;4.93;2.87;;;8.80;99.90;;;;;;5071756;28;20660;-71
2023/01/03 02:10:37;;;;;;;5.43;2.87;;;8.80;99.90;;;;;;5071836;28;20201;-69
2023/01/03 02:13:15;;;;;;;5.73;2.80;;;8.80;99.90;;;;;;5071919;28;20194;-69
2023/01/03 02:16:12;;;;;;;4.67;2.77;;;8.70;99.90;;;;;;5051650;28;20223;-69
2023/01/03 02:18:50;;;;;;;2.87;2.47;;;8.70;99.90;;;;;;5040947;28;20736;-69
2023/01/03 02:21:46;;;;;;;2.83;2.60;;;8.70;99.90;;;;;;5047284;28;20214;-69
2023/01/03 02:24:48;;;;;;;3.00;2.77;;;8.70;99.90;;;;;;5094064;28;20192;-70
2023/01/03 02:27:46;;;;;;;5.93;2.67;;;8.70;99.90;;;;;;5093930;28;20226;-69
2023/01/03 02:30:32;;;;;;;4.63;2.53;;;8.60;99.90;;;;;;5112551;28;20674;-70
2023/01/03 02:33:10;;;;;;;3.60;2.20;;;8.60;99.90;;;;;;5114144;28;20192;-69
2023/01/03 02:35:47;;;;;;;3.43;2.37;;;8.50;99.90;;;;;;5114358;28;20200;-69
2023/01/03 02:38:23;;;;;;;6.17;2.63;;;8.50;99.90;;;;;;5114262;28;20203;-70
2023/01/03 02:41:01;;;;;;;3.00;2.57;;;8.50;99.90;;;;;;5109016;28;20198;-69
2023/01/03 02:43:37;;;;;;;3.57;2.40;;;8.50;99.90;;;;;;5093561;28;20266;-69
2023/01/03 02:46:13;;;;;;;3.03;2.53;;;8.40;99.90;;;;;;5100633;28;20232;-69
2023/01/03 02:48:51;;;;;;;5.90;2.80;;;8.40;99.90;;;;;;5114140;28;20196;-69
2023/01/03 02:51:24;;;;;;;5.67;2.57;;;8.40;99.90;;;;;;5114001;28;20246;-70
2023/01/03 02:53:53;;;;;;;6.17;2.97;;;8.30;99.90;;;;;;5113301;28;20299;-69
2023/01/03 02:56:25;;;;;;;4.53;2.77;;;8.30;99.90;;;;;;5113343;28;20282;-70
2023/01/03 02:58:58;;;;;;;4.07;2.70;;;8.30;99.90;;;;;;5113683;28;20191;-70
2023/01/03 03:01:30;;;;;;;4.27;2.80;;;8.30;99.90;;;;;;5112920;28;20198;-70
2023/01/03 03:04:02;;;;;;;4.90;2.80;;;8.30;99.90;;;;;;5112421;28;20271;-70
2023/01/03 03:06:39;;;;;;;7.67;2.60;;;8.30;99.90;;;;;;5111063;28;20596;-70
2023/01/03 03:09:08;;;;;;;5.03;3.30;;;8.40;99.90;;;;;;5113439;28;20211;-70
2023/01/03 03:14:35;;;;;;;5.63;3.33;;;8.40;99.90;;;;;;5132215;27;20558;-70
2023/01/03 03:17:10;;;;;;;4.90;3.13;;;8.30;99.90;;;;;;5133070;27;20234;-70
2023/01/03 03:25:26;;;;;;;5.60;3.70;;;8.30;99.90;;;;;;5133597;27;20287;-70
2023/01/03 03:30:48;;;;;;;5.60;3.10;;;8.30;99.90;;;;;;5123342;27;20196;-70
2023/01/03 03:33:21;;;;;;;8.10;3.47;;;8.30;99.90;;;;;;5134546;27;20557;-70
2023/01/03 03:35:55;;;;;;;2.63;2.43;;;8.30;99.90;;;;;;5109077;27;20208;-70
2023/01/03 03:38:27;;;;;;;6.90;2.43;;;8.40;99.90;;;;;;5107493;28;20215;-71
2023/01/03 03:46:49;;;;;;;4.83;2.37;;;8.30;99.90;;;;;;5133945;27;20199;-70
2023/01/03 03:49:39;;;;;;;3.60;3.20;;;8.30;99.90;;;;;;5133096;27;20194;-70
2023/01/03 03:52:13;;;;;;;6.73;4.17;;;8.30;99.90;;;;;;5132633;27;20195;-69
2023/01/03 03:54:47;;;;;;;4.77;2.97;;;8.30;99.90;;;;;;5132453;27;20251;-70
2023/01/03 03:57:21;;;;;;;4.43;3.03;;;8.20;99.90;;;;;;5131884;27;20235;-70
2023/01/03 03:59:55;;;;;;;7.47;3.17;;;8.20;99.90;;;;;;5132039;27;20201;-69
2023/01/03 04:02:26;;;;;;;7.47;3.67;;;8.30;99.90;;;;;;5132272;27;20204;-72
2023/01/03 04:05:01;;;;;;;6.10;3.20;;;8.30;99.90;;;;;;5095009;28;20714;-71
2023/01/03 04:07:30;;;;;;;7.73;3.53;;;8.30;99.90;;;;;;5095716;28;20306;-69
2023/01/03 04:09:59;;;;;;;7.20;3.20;;;8.30;99.90;;;;;;5091375;28;20629;-70
2023/01/03 04:12:27;;;;;;;8.17;3.93;;;8.30;99.90;;;;;;5091393;28;20193;-70
2023/01/03 04:14:56;;;;;;;7.70;3.00;;;8.30;99.90;;;;;;5104832;27;20199;-71
2023/01/03 04:17:25;;;;;;;10.37;3.17;;;8.20;99.90;;;;;;5131895;27;20707;-70
2023/01/03 04:19:54;;;;;;;6.50;3.50;;;8.20;99.90;;;;;;5131938;27;20227;-69
2023/01/03 04:22:24;;;;;;;5.43;3.57;;;8.20;99.90;;;;;;5132176;27;20236;-71
2023/01/03 04:24:53;;;;;;;8.23;3.37;;;8.20;99.90;;;;;;5131738;27;20203;-71
2023/01/03 04:27:22;;;;;;;7.17;2.97;;;8.10;99.90;;;;;;5132326;27;20210;-72
2023/01/03 04:29:51;;;;;;;10.37;4.13;;;8.10;99.90;;;;;;5132679;27;20598;-71
2023/01/03 04:32:20;;;;;;;7.27;2.70;;;8.10;99.90;;;;;;5132842;27;20191;-71
2023/01/03 04:34:49;;;;;;;6.30;3.33;;;8.10;99.90;;;;;;5132862;27;20198;-71
2023/01/03 04:37:17;;;;;;;6.10;2.90;;;8.00;99.90;;;;;;5132709;27;20219;-70
2023/01/03 04:39:48;;;;;;;5.10;2.83;;;8.10;99.90;;;;;;5132721;27;20218;-71
2023/01/03 04:45:06;;;;;;;4.27;2.70;;;8.10;99.90;;;;;;5049323;28;20230;-70
2023/01/03 04:47:35;;;;;;;4.57;3.20;;;8.00;99.90;;;;;;5049159;28;20392;-70
2023/01/03 04:50:05;;;;;;;7.53;3.13;;;8.00;99.90;;;;;;5049025;28;20203;-71
2023/01/03 04:52:34;;;;;;;7.97;2.90;;;8.10;99.90;;;;;;5044902;28;20199;-71
2023/01/03 04:55:04;;;;;;;4.13;2.53;;;8.00;99.90;;;;;;5028686;28;20202;-71
2023/01/03 04:57:33;;;;;;;6.93;3.23;;;8.00;99.90;;;;;;5029109;28;20231;-73
2023/01/03 05:00:03;;;;;;;5.73;2.47;;;8.00;99.90;;;;;;5017892;28;20270;-71
2023/01/03 05:02:31;;;;;;;4.83;2.63;;;8.00;99.90;;;;;;5009577;28;20204;-72
2023/01/03 05:05:00;;;;;;;7.20;2.50;;;7.90;99.90;;;;;;5010844;28;20561;-71
2023/01/03 05:07:30;;;;;;;7.20;2.70;;;7.90;99.90;;;;;;5029270;28;20206;-71
2023/01/03 05:09:59;;;;;;;5.63;2.93;;;7.90;99.90;;;;;;5029164;28;20261;-71
2023/01/03 05:12:29;;;;;;;7.43;2.60;;;7.80;99.90;;;;;;5029123;28;20669;-72
2023/01/03 05:14:58;;;;;;;4.97;3.13;;;7.80;99.90;;;;;;5029080;28;20202;-71
2023/01/03 05:17:27;;;;;;;5.93;2.47;;;7.80;99.90;;;;;;5032088;28;20316;-71
2023/01/03 05:25:51;;;;;;;5.40;2.87;;;7.80;99.90;;;;;;5032646;28;20226;-72
2023/01/03 05:28:23;;;;;;;8.17;3.33;;;7.80;99.90;;;;;;5032939;28;20256;-72
2023/01/03 05:30:52;;;;;;;11.43;3.27;;;7.80;99.90;;;;;;5032858;28;20605;-71
2023/01/03 05:33:21;;;;;;;8.93;3.07;;;7.80;99.90;;;;;;5032638;28;20214;-71
2023/01/03 05:35:50;;;;;;;10.33;3.07;;;7.80;99.90;;;;;;5032816;28;20256;-71
2023/01/03 05:38:19;;;;;;;6.63;3.27;;;7.80;99.90;;;;;;5032482;28;20222;-71
2023/01/03 05:40:48;;;;;;;11.90;3.60;;;7.80;99.90;;;;;;5032712;28;20359;-71
2023/01/03 05:43:17;;;;;;;8.63;2.57;;;7.90;99.90;;;;;;5031367;28;20202;-71
2023/01/03 05:45:50;;;;;;;8.03;3.17;;;7.80;99.90;;;;;;5031697;28;20199;-72
2023/01/03 05:48:19;;;;;;;4.60;2.87;;;7.80;99.60;;;;;;5031655;28;20221;-72
2023/01/03 05:50:49;;;;;;;8.83;2.83;;;7.80;99.60;;;;;;5031419;28;20618;-71
2023/01/03 05:53:18;;;;;;;6.27;2.87;;;7.70;99.60;;;;;;5031466;28;20206;-72
2023/01/03 05:55:47;;;;;;;9.73;2.90;;;7.70;99.90;;;;;;5022972;28;20608;-70
2023/01/03 05:58:16;;;;;;;6.57;2.87;;;7.70;99.70;;;;;;5057756;28;20231;-71
2023/01/03 06:00:47;;;;;;;8.03;3.40;;;7.60;99.90;;;;;;5114096;28;20196;-71
2023/01/03 06:03:16;;;;;;;8.03;2.90;;;7.60;99.90;;;;;;5114256;28;20199;-72
2023/01/03 06:05:44;;;;;;;8.13;3.20;;;7.60;99.90;;;;;;5114076;28;20197;-70
2023/01/03 06:08:18;;;;;;;4.97;2.60;;;7.60;99.90;;;;;;5114027;28;20313;-71
2023/01/03 06:10:46;;;;;;;6.17;2.77;;;7.50;99.90;;;;;;5114662;28;21099;-70
2023/01/03 06:13:15;;;;;;;5.73;2.70;;;7.50;99.90;;;;;;5113756;28;20215;-72
2023/01/03 06:17:53;;;;;;;6.00;3.87;;;7.50;99.90;;;;;;5113983;28;20199;-72
2023/01/03 06:18:34;;;;;;;7.27;2.63;;;7.50;99.90;;;;;;5093445;28;20223;-71
2023/01/03 06:21:04;;;;;;;4.90;2.70;;;7.50;99.90;;;;;;5093328;28;20220;-70
2023/01/03 06:23:33;;;;;;;7.43;3.30;;;7.50;99.90;;;;;;5093555;28;20231;-72
2023/01/03 06:26:04;;;;;;;6.97;3.20;;;7.50;99.90;;;;;;5092952;28;20232;-72
2023/01/03 06:28:33;;;;;;;5.23;3.17;;;7.60;99.90;;;;;;5092252;28;20196;-71
2023/01/03 06:31:04;;;;;;;8.27;3.83;;;7.60;99.90;;;;;;5102317;28;20207;-71
2023/01/03 06:33:34;;;;;;;8.90;4.73;;;7.50;99.90;;;;;;5114031;28;20211;-72
2023/01/03 06:36:04;;;;;;;9.00;4.50;;;7.50;99.90;;;;;;5113604;28;20249;-70
2023/01/03 06:38:34;;;;;;;10.53;3.60;;;7.50;99.90;;;;;;5113191;28;20235;-69
2023/01/03 06:41:03;;;;;;;8.97;4.20;;;7.50;99.90;;;;;;5113169;28;20593;-70
2023/01/03 06:43:32;;;;;;;6.40;3.20;;;7.50;99.90;;;;;;5113139;28;20259;-71
2023/01/03 06:54:25;;;;;;;11.30;3.73;;;7.30;99.30;;;;;;5113042;28;20295;-71
2023/01/03 06:56:54;;;;;;;6.03;3.20;;;7.20;99.70;;;;;;5113008;28;20196;-70
2023/01/03 06:59:25;;;;;;;6.83;3.87;;;7.20;98.40;;;;;;5112746;28;20227;-71
2023/01/03 07:01:56;;;;;;;10.97;3.13;;;7.10;98.50;;;;;;5107370;28;20692;-70
2023/01/03 07:04:26;;;;;;;7.67;3.00;;;7.10;99.10;;;;;;5113643;28;20248;-70
2023/01/03 07:06:55;;;;;;;9.10;3.70;;;7.10;99.40;;;;;;5113731;28;20191;-70
2023/01/03 07:09:24;;;;;;;9.13;2.83;;;7.10;99.80;;;;;;5113591;28;20253;-71
2023/01/03 07:11:53;;;;;;;5.53;2.47;;;7.10;99.90;;;;;;5113435;28;20245;-71
2023/01/03 07:14:20;;;;;;;11.50;3.23;;;7.10;99.90;;;;;;5113415;28;20250;-71
2023/01/03 07:16:50;;;;;;;7.13;3.03;;;7.10;99.90;;;;;;5113438;28;20202;-72
2023/01/03 07:19:20;;;;;;;7.30;3.40;;;7.10;99.90;;;;;;5113356;28;20297;-71
2023/01/03 07:21:49;;;;;;;6.80;3.07;;;7.20;99.90;;;;;;5106275;28;20188;-70
2023/01/03 07:24:18;;;;;;;7.63;2.80;;;7.20;99.90;;;;;;5105102;27;20252;-70
2023/01/03 07:26:47;;;;;;;10.53;3.23;;;7.10;99.90;;;;;;5113735;28;20232;-72
2023/01/03 07:29:16;;;;;;;7.53;3.07;;;7.20;99.90;;;;;;5113643;27;20210;-69
2023/01/03 07:31:45;;;;;;;4.20;2.90;;;7.20;99.90;;;;;;5114176;28;20638;-70
2023/01/03 07:34:14;;;;;;;7.67;2.87;;;7.20;99.90;;;;;;5112873;28;20574;-71
2023/01/03 07:36:44;;;;;;;6.70;2.77;;;7.20;99.90;;;;;;5113153;28;20606;-70
2023/01/03 07:39:13;;;;;;;11.27;2.97;;;7.30;99.90;;;;;;5112805;28;20768;-70
2023/01/03 07:44:30;;;;;;;9.13;3.70;;;7.30;99.90;;;;;;5029769;28;20217;-70
2023/01/03 07:46:59;;;;;;;3.87;2.77;;;7.30;99.90;;;;;;5030067;28;20206;-70
2023/01/03 07:49:28;;;;;;;7.23;3.37;;;7.30;99.90;;;;;;5030102;28;20199;-71
2023/01/03 07:51:59;;;;;;;6.80;3.70;;;7.30;99.90;;;;;;5030037;28;20641;-68
2023/01/03 07:54:28;;;;;;;7.87;2.90;;;7.20;99.90;;;;;;5029599;28;20225;-69
2023/01/03 07:56:56;;;;;;;11.43;3.60;;;7.30;99.90;;;;;;5029514;28;20664;-69
2023/01/03 07:59:25;;;;;;;7.07;3.23;;;7.20;99.90;;;;;;5029911;28;20398;-71
2023/01/03 08:01:54;;;;;;;5.43;3.07;;;7.20;99.90;;;;;;5030208;28;20206;-72
2023/01/03 08:04:23;;;;;;;6.33;3.50;;;7.30;99.90;;;;;;5030358;28;20729;-72
2023/01/03 08:06:52;;;;;;;8.20;3.20;;;7.30;99.90;;;;;;5030086;28;20213;-70
2023/01/03 08:14:56;;;;;;;7.57;3.13;;;7.30;99.90;;;;;;5029326;28;20206;-71
2023/01/03 08:17:25;;;;;;;9.10;2.93;;;7.30;99.90;;;;;;5029793;28;20222;-71
2023/01/03 08:19:54;;;;;;;11.07;2.70;;;7.30;99.90;;;;;;5029570;28;20256;-70
2023/01/03 08:22:23;;;;;;;12.07;3.73;;;7.30;99.90;;;;;;5090424;28;20200;-73
2023/01/03 08:24:53;;;;;;;5.53;3.40;;;7.20;99.90;;;;;;5111679;28;20202;-70
2023/01/03 08:27:22;;;;;;;9.87;3.87;;;7.30;99.90;;;;;;5112154;28;20210;-70
2023/01/03 08:29:51;;;;;;;9.27;3.27;;;7.20;99.90;;;;;;5104338;28;20661;-70
2023/01/03 08:32:21;;;;;;;7.30;3.50;;;7.30;99.90;;;;;;5112137;28;20290;-71
2023/01/03 08:34:50;;;;;;;7.77;4.00;;;7.30;99.90;;;;;;5112020;28;20214;-72
2023/01/03 08:37:19;;;;;;;6.27;3.27;;;7.20;99.90;;;;;;5107403;28;20196;-70
2023/01/03 08:39:52;;;;;;;7.87;3.33;;;7.30;99.90;;;;;;5103400;28;20617;-71
2023/01/03 08:42:24;;;;;;;8.77;3.43;;;7.30;99.90;;;;;;5112124;28;20195;-71
2023/01/03 08:44:58;;;;;;;6.87;3.57;;;7.40;99.90;;;;;;5112071;28;20253;-73
2023/01/03 08:47:28;;;;;;;5.37;3.20;;;7.50;99.90;;;;;;5112122;28;20198;-70
2023/01/03 08:49:58;;;;;;;7.93;4.33;;;7.50;99.90;;;;;;5112034;28;20260;-72
2023/01/03 08:52:27;;;;;;;10.97;3.30;;;7.50;99.90;;;;;;5093694;28;20253;-72
2023/01/03 08:55:02;;;;;;;15.93;7.93;;;7.40;99.90;;;;;;5111925;28;20198;-71
2023/01/03 08:57:32;;;;;;;7.73;2.80;;;7.40;99.90;;;;;;5111734;28;20222;-72
2023/01/03 09:00:01;;;;;;;6.23;2.77;;;7.40;99.90;;;;;;5111871;28;20227;-72
2023/01/03 09:02:30;;;;;;;11.10;3.23;;;7.40;99.90;;;;;;5112006;28;20236;-71
2023/01/03 09:04:59;;;;;;;6.10;3.20;;;7.50;99.90;;;;;;5111933;28;20576;-72
2023/01/03 09:07:28;;;;;;;6.30;3.13;;;7.50;99.90;;;;;;5111978;28;20191;-72
2023/01/03 09:09:57;;;;;;;6.43;2.93;;;7.50;99.90;;;;;;5111890;28;20630;-73
2023/01/03 09:12:27;;;;;;;12.50;6.87;;;7.50;99.90;;;;;;5111901;28;20219;-70
2023/01/03 09:14:57;;;;;;;4.57;3.20;;;7.60;99.90;;;;;;5107114;28;20213;-72
2023/01/03 09:17:26;;;;;;;7.13;3.00;;;7.70;99.90;;;;;;5098244;28;20208;-73
2023/01/03 09:19:55;;;;;;;10.47;3.27;;;7.70;99.90;;;;;;5109640;28;20314;-70
2023/01/03 09:22:24;;;;;;;7.77;3.77;;;7.70;99.90;;;;;;5111835;28;20196;-71
2023/01/03 09:24:54;;;;;;;7.57;3.27;;;7.70;99.90;;;;;;5107285;28;20212;-70
2023/01/03 09:27:23;;;;;;;5.47;3.33;;;7.60;99.90;;;;;;5108176;28;20294;-71
2023/01/03 09:29:52;;;;;;;6.63;3.50;;;7.60;99.90;;;;;;5111345;28;20192;-71
2023/01/03 09:32:22;;;;;;;8.90;3.17;;;7.70;99.90;;;;;;5111809;28;20192;-71
2023/01/03 09:34:51;;;;;;;7.97;4.20;;;7.50;99.90;;;;;;5111663;28;20200;-70
2023/01/03 09:37:20;;;;;;;12.33;7.43;;;7.40;99.90;;;;;;5111634;28;20196;-70
2023/01/03 09:39:48;;;;;;;10.97;3.80;;;7.40;99.90;;;;;;5111672;28;20219;-71
2023/01/03 09:45:11;;;;;;;8.80;4.27;;;7.40;99.90;;;;;;5111616;28;20200;-69
2023/01/03 09:47:43;;;;;;;13.97;4.13;;;7.40;99.90;;;;;;5111566;28;20192;-69
2023/01/03 09:50:19;;;;;;;10.97;5.83;;;7.30;99.90;;;;;;5111560;28;20279;-70
2023/01/03 10:05:11;;;;;;;7.40;3.70;;;7.30;99.90;;;;;;5015293;28;20236;-69
2023/01/03 10:08:04;;;;;;;6.47;3.87;;;7.20;99.90;;;;;;4953929;28;20812;-70
2023/01/03 10:10:39;;;;;;;12.73;4.30;;;7.10;99.90;;;;;;4954061;29;20684;-70
2023/01/03 10:13:17;;;;;;;8.53;4.43;;;7.20;99.90;;;;;;4954047;29;20213;-70
2023/01/03 10:16:01;;;;;;;10.60;3.90;;;7.20;99.90;;;;;;4953987;28;20570;-70
2023/01/03 10:18:48;;;;;;;9.77;3.97;;;7.20;99.90;;;;;;4953861;29;20291;-70
2023/01/03 10:21:26;;;;;;;7.27;3.40;;;7.10;99.90;;;;;;4953857;28;20240;-70
2023/01/03 10:23:55;;;;;;;7.30;3.80;;;7.10;99.90;;;;;;4953674;29;20213;-70
2023/01/03 10:26:26;;;;;;;8.33;3.27;;;7.10;99.90;;;;;;4953584;29;20229;-71
2023/01/03 10:29:01;;;;;;;7.47;4.03;;;7.10;99.90;;;;;;4953572;28;20299;-69
2023/01/03 10:31:43;;;;;;;9.57;4.50;;;7.20;99.90;;;;;;4953555;29;20202;-70
2023/01/03 10:34:12;;;;;;;7.40;4.70;;;7.10;99.90;;;;;;4953764;29;20307;-70
2023/01/03 10:36:42;;;;;;;8.57;4.70;;;7.10;99.90;;;;;;5011506;28;20226;-71
2023/01/03 10:39:11;;;;;;;4.50;3.17;;;7.10;99.90;;;;;;5031717;28;20680;-70
2023/01/03 10:41:43;;;;;;;7.80;3.67;;;7.00;99.90;;;;;;5031486;28;20234;-71
2023/01/03 10:44:24;;;;;;;11.97;4.23;;;6.90;99.90;;;;;;5076041;27;20214;-71
2023/01/03 10:46:55;;;;;;;8.13;3.20;;;7.00;99.90;;;;;;5106606;28;20549;-71
2023/01/03 10:49:26;;;;;;;7.60;3.40;;;7.10;99.90;;;;;;5113622;28;20218;-69
2023/01/03 10:52:02;;;;;;;10.83;4.43;;;7.10;99.90;;;;;;5114142;28;20275;-69
2023/01/03 10:54:46;;;;;;;11.70;4.37;;;7.10;99.90;;;;;;5112332;27;20191;-70
2023/01/03 10:57:36;;;;;;;7.80;2.83;;;7.10;99.90;;;;;;5114586;28;20722;-70
2023/01/03 11:00:27;;;;;;;6.37;3.07;;;7.10;99.90;;;;;;5114025;28;20208;-69
2023/01/03 11:03:08;;;;;;;5.80;2.80;;;7.10;99.90;;;;;;5113929;28;20200;-70
2023/01/03 11:05:38;;;;;;;10.60;2.57;;;7.10;99.90;;;;;;5113905;28;20677;-69
2023/01/03 11:08:17;;;;;;;7.27;3.30;;;7.00;99.90;;;;;;5114375;27;20200;-70
2023/01/03 11:10:54;;;;;;;6.90;3.00;;;7.00;99.90;;;;;;5114122;28;20199;-71
2023/01/03 11:13:27;;;;;;;6.50;3.37;;;7.00;99.90;;;;;;5113359;28;20695;-71
2023/01/03 11:15:58;;;;;;;8.23;3.30;;;7.00;99.90;;;;;;5109634;28;20200;-71
2023/01/03 11:18:28;;;;;;;6.57;3.73;;;7.00;99.90;;;;;;5107335;28;20188;-71
2023/01/03 11:21:07;;;;;;;10.03;3.90;;;7.00;99.90;;;;;;5113654;28;20216;-70
2023/01/03 11:24:00;;;;;;;8.97;3.33;;;7.10;99.90;;;;;;5113874;28;20200;-70
2023/01/03 11:26:46;;;;;;;18.70;10.10;;;7.20;99.90;;;;;;5080428;28;20239;-70
2023/01/03 11:29:40;;;;;;;9.20;3.27;;;7.20;99.90;;;;;;5093388;28;20291;-71
2023/01/03 11:32:26;;;;;;;10.73;6.10;;;7.10;99.90;;;;;;5101372;28;20188;-71
2023/01/03 11:35:33;;;;;;;6.50;3.20;;;7.10;99.90;;;;;;5113690;28;20219;-70
2023/01/03 11:38:19;;;;;;;8.30;2.80;;;7.00;99.90;;;;;;5010215;28;20211;-70
2023/01/03 11:41:00;;;;;;;5.70;3.07;;;7.00;99.90;;;;;;5010377;28;20249;-71
2023/01/03 11:43:43;;;;;;;8.53;3.70;;;6.90;99.90;;;;;;5010556;28;20275;-71
2023/01/03 11:46:27;;;;;;;5.47;2.67;;;6.90;99.90;;;;;;5010054;28;20206;-71
2023/01/03 11:49:19;;;;;;;5.47;2.53;;;6.90;99.90;;;;;;5014688;28;20222;-70
2023/01/03 11:52:00;;;;;;;7.57;2.90;;;6.90;99.90;;;;;;5028020;28;20218;-72
2023/01/03 11:54:54;;;;;;;6.97;2.73;;;6.90;99.90;;;;;;5029619;28;20206;-72
2023/01/03 11:57:33;;;;;;;11.60;4.37;;;6.90;99.90;;;;;;5029976;28;20198;-69
2023/01/03 12:00:10;;;;;;;7.63;4.00;;;7.00;99.90;;;;;;5029984;28;20309;-70
2023/01/03 12:03:01;;;;;;;5.23;3.30;;;6.90;99.90;;;;;;5013823;28;20655;-69
2023/01/03 12:05:48;;;;;;;8.03;4.37;;;6.90;99.90;;;;;;5029804;28;20198;-71
2023/01/03 12:08:37;;;;;;;8.67;4.70;;;6.90;99.90;;;;;;5029991;28;20615;-70
2023/01/03 12:11:15;;;;;;;9.90;4.90;;;6.90;99.90;;;;;;5029498;28;20198;-70
2023/01/03 12:13:54;;;;;;;11.27;5.50;;;7.00;99.90;;;;;;5026041;28;20294;-71
2023/01/03 12:16:29;;;;;;;8.43;5.57;;;7.00;99.90;;;;;;5108429;28;20227;-70
2023/01/03 12:19:03;;;;;;;9.93;6.83;;;7.00;99.90;;;;;;5113011;28;20222;-70
2023/01/03 12:21:42;;;;;;;8.93;4.87;;;7.10;99.90;;;;;;5112075;28;20237;-70
2023/01/03 12:24:18;;;;;;;8.83;5.33;;;7.00;99.90;;;;;;5112856;28;20214;-71
2023/01/03 12:26:53;;;;;;;11.17;4.90;;;6.90;99.90;;;;;;5111355;28;20227;-71
2023/01/03 12:29:29;;;;;;;9.00;5.00;;;6.90;99.90;;;;;;5112582;28;20194;-70
2023/01/03 12:32:06;;;;;;;9.67;5.20;;;6.90;99.90;;;;;;5111756;28;20218;-70
2023/01/03 12:34:43;;;;;;;7.67;4.40;;;6.90;99.90;;;;;;5112193;28;20274;-70
2023/01/03 12:37:16;;;;;;;10.87;4.50;;;6.90;99.90;;;;;;5112230;28;20191;-69
2023/01/03 12:39:54;;;;;;;5.77;3.53;;;6.90;99.90;;;;;;5111525;28;20219;-70
2023/01/03 12:42:32;;;;;;;7.00;4.50;;;6.90;99.90;;;;;;5111726;28;20700;-70
2023/01/03 12:45:23;;;;;;;8.50;4.17;;;6.90;99.90;;;;;;5111860;28;20199;-70
2023/01/03 12:47:58;;;;;;;7.67;4.83;;;6.90;99.90;;;;;;5112081;28;20210;-69
2023/01/03 12:50:30;;;;;;;11.03;5.30;;;6.90;99.90;;;;;;5098314;28;20191;-70
2023/01/03 12:53:12;;;;;;;7.63;5.50;;;7.00;99.90;;;;;;5112182;28;20278;-70
2023/01/03 12:55:53;;;;;;;7.90;5.30;;;7.00;99.90;;;;;;5112301;28;20237;-70
2023/01/03 12:58:34;;;;;;;12.67;4.77;;;7.00;99.90;;;;;;5111947;28;20245;-70
2023/01/03 13:01:12;;;;;;;14.57;5.90;;;7.00;99.90;;;;;;5093569;28;20696;-70
2023/01/03 13:03:46;;;;;;;9.73;5.33;;;7.10;99.90;;;;;;5112052;28;20199;-70
2023/01/03 13:06:19;;;;;;;12.53;5.40;;;7.10;99.90;;;;;;5111818;28;20947;-70
2023/01/03 13:08:53;;;;;;;11.43;3.77;;;7.10;99.90;;;;;;5111888;28;20196;-70
2023/01/03 13:11:26;;;;;;;7.13;3.87;;;7.10;99.90;;;;;;5111933;28;20194;-70
2023/01/03 13:13:58;;;;;;;6.27;3.53;;;7.20;99.90;;;;;;5092996;28;20224;-70
2023/01/03 13:16:43;;;;;;;6.33;3.67;;;7.20;99.90;;;;;;5091383;28;20192;-70
2023/01/03 13:19:54;;;;;;;8.73;3.30;;;7.20;99.90;;;;;;5091479;28;20265;-69
2023/01/03 13:22:50;;;;;;;6.93;3.20;;;7.10;99.90;;;;;;5091191;28;20226;-70
2023/01/03 13:25:38;;;;;;;6.77;3.77;;;7.00;99.90;;;;;;5107318;28;20803;-70
2023/01/03 13:28:33;;;;;;;9.47;4.70;;;7.00;99.90;;;;;;5111295;28;20653;-69
2023/01/03 13:31:44;;;;;;;8.67;3.97;;;7.10;99.90;;;;;;5111394;28;20277;-70
2023/01/03 13:34:36;;;;;;;10.57;4.07;;;7.10;99.90;;;;;;5111962;28;20196;-70
2023/01/03 13:37:20;;;;;;;7.27;3.37;;;7.00;99.90;;;;;;5112950;28;20657;-69
2023/01/03 13:40:18;;;;;;;8.53;4.10;;;7.00;99.90;;;;;;5115138;28;20223;-71
2023/01/03 13:42:47;;;;;;;4.67;3.20;;;7.00;99.90;;;;;;5112331;28;20297;-69
2023/01/03 13:46:07;;;;;;;8.90;4.03;;;7.00;99.90;;;;;;5115009;28;20196;-70
2023/01/03 13:48:53;;;;;;;12.07;5.03;;;6.90;99.90;;;;;;5012577;28;20203;-72
2023/01/03 13:51:35;;;;;;;12.53;5.13;;;6.90;99.90;;;;;;5012577;28;20199;-71
2023/01/03 13:54:23;;;;;;;10.60;5.47;;;7.00;99.90;;;;;;5012742;28;20211;-69
2023/01/03 13:57:05;;;;;;;8.87;4.70;;;6.90;99.90;;;;;;5012448;28;20210;-69
2023/01/03 13:59:41;;;;;;;11.10;4.47;;;6.90;99.90;;;;;;5012735;28;20206;-69
2023/01/03 14:02:48;;;;;;;15.03;6.67;;;6.90;99.90;;;;;;5012565;28;20229;-69
2023/01/03 14:05:53;;;;;;;46.00;23.97;;;7.10;99.90;;;;;;4878237;29;20212;-70
2023/01/03 14:08:41;;;;;;;11.67;7.20;;;7.20;99.90;;;;;;4822938;29;20218;-70
2023/01/03 14:11:33;;;;;;;17.53;7.57;;;7.20;99.90;;;;;;4822874;29;20694;-70
2023/01/03 14:14:06;;;;;;;11.97;6.30;;;7.20;99.90;;;;;;4823018;29;20217;-69
2023/01/03 14:16:46;;;;;;;9.40;6.10;;;7.20;99.90;;;;;;4822507;29;20206;-71
2023/01/03 14:19:20;;;;;;;10.67;4.90;;;7.20;99.90;;;;;;4849317;29;20708;-71
2023/01/03 14:21:54;;;;;;;18.93;7.70;;;7.20;99.90;;;;;;4877963;29;20280;-70
2023/01/03 14:24:29;;;;;;;7.50;4.03;;;7.20;99.90;;;;;;4878229;29;20204;-70
2023/01/03 14:27:06;;;;;;;9.03;4.43;;;7.10;99.90;;;;;;4877959;29;20259;-70
2023/01/03 14:29:42;;;;;;;12.43;5.63;;;6.90;99.90;;;;;;4878076;29;20212;-69
2023/01/03 14:32:20;;;;;;;10.20;4.47;;;6.90;99.90;;;;;;4877987;29;20693;-69
2023/01/03 14:34:50;;;;;;;2.80;2.60;;;6.90;99.90;;;;;;4877964;29;20212;-69
2023/01/03 14:37:21;;;;;;;5.47;3.47;;;6.70;99.90;;;;;;4877998;29;20832;-69